createdAt,value
2024-01-07T00:00:55.698Z,94735.56
2024-01-07T00:03:22.481Z,94735.28
2024-01-07T00:05:49.237Z,94739.19
2024-01-07T00:08:16.005Z,94736.91
2024-01-07T00:10:42.702Z,94732.69
2024-01-07T00:13:09.443Z,94736.44
2024-01-07T00:15:36.176Z,94734.75
2024-01-07T00:18:03.228Z,94747.03
2024-01-07T00:20:29.949Z,94739.97
2024-01-07T00:22:57.592Z,94739.28
2024-01-07T00:25:24.286Z,94740.78
2024-01-07T00:27:52.610Z,94734.84
2024-01-07T00:30:20.528Z,94734.28
2024-01-07T00:32:47.364Z,94738.63
2024-01-07T00:35:14.147Z,94737.47
2024-01-07T00:37:41.177Z,94738.28
2024-01-07T00:40:08.722Z,94733.03
2024-01-07T00:42:35.626Z,94737.91
2024-01-07T00:45:02.310Z,94730.56
2024-01-07T00:47:29.068Z,94736.69
2024-01-07T00:49:55.747Z,94736.34
2024-01-07T00:52:24.489Z,94731.44
2024-01-07T00:54:51.278Z,94731.53
2024-01-07T00:57:17.978Z,94729.50
2024-01-07T00:59:44.725Z,94728.03
2024-01-07T01:02:11.537Z,94728.63
2024-01-07T01:04:41.529Z,94732.59
2024-01-07T01:07:09.289Z,94737.34
2024-01-07T01:09:36.136Z,94732.13
2024-01-07T01:12:02.916Z,94739.97
2024-01-07T01:14:29.671Z,94736.34
2024-01-07T01:16:56.490Z,94738.94
2024-01-07T01:19:23.237Z,94742.47
2024-01-07T01:21:50.015Z,94746.47
2024-01-07T01:24:17.088Z,94746.47
2024-01-07T01:26:43.756Z,94749.19
2024-01-07T01:29:10.564Z,94745.31
2024-01-07T01:31:37.266Z,94747.72
2024-01-07T01:34:04.248Z,94744.31
2024-01-07T01:36:33.189Z,94745.09
2024-01-07T01:38:59.947Z,94744.75
2024-01-07T01:41:26.713Z,94740.09
2024-01-07T01:43:57.632Z,94742.47
2024-01-07T01:46:24.646Z,94747.16
2024-01-07T01:48:52.618Z,94740.66
2024-01-07T01:51:20.270Z,94739.88
2024-01-07T01:53:48.713Z,94735.53
2024-01-07T01:56:18.008Z,94741.81
2024-01-07T01:58:45.712Z,94739.97
2024-01-07T02:01:13.197Z,94742.69
2024-01-07T02:03:39.921Z,94737.91
2024-01-07T02:06:07.052Z,94740.19
2024-01-07T02:08:33.965Z,94738.38
2024-01-07T02:11:15.517Z,94737.25
2024-01-07T02:13:42.350Z,94738.72
2024-01-07T02:16:09.178Z,94746.59
2024-01-07T02:18:36.528Z,94743.97
2024-01-07T02:21:03.527Z,94742.13
2024-01-07T02:23:30.341Z,94741.81
2024-01-07T02:25:56.991Z,94739.75
2024-01-07T02:28:23.663Z,94740.31
2024-01-07T02:30:50.887Z,94745.22
2024-01-07T02:33:17.713Z,94737.47
2024-01-07T02:35:44.473Z,94734.63
2024-01-07T02:38:11.276Z,94738.81
2024-01-07T02:40:38.027Z,94737.91
2024-01-07T02:43:05.071Z,94736.91
2024-01-07T02:45:31.816Z,94739.06
2024-01-07T02:47:58.581Z,94736.47
2024-01-07T02:50:25.333Z,94740.66
2024-01-07T02:52:52.193Z,94737.59
2024-01-07T02:55:19.278Z,94734.19
2024-01-07T02:57:45.993Z,94737.34
2024-01-07T03:00:13.179Z,94732.00
2024-01-07T03:02:39.916Z,94738.03
2024-01-07T03:05:07.360Z,94735.28
2024-01-07T03:07:34.074Z,94733.28
2024-01-07T03:10:01.028Z,94734.41
2024-01-07T03:12:27.802Z,94737.59
2024-01-07T03:14:54.520Z,94730.41
2024-01-07T03:17:22.645Z,94733.63
2024-01-07T03:19:49.442Z,94734.19
2024-01-07T03:22:16.171Z,94738.41
2024-01-07T03:24:43.404Z,94732.81
2024-01-07T03:27:10.225Z,94739.28
2024-01-07T03:29:37.580Z,94741.00
2024-01-07T03:32:04.502Z,94737.03
2024-01-07T03:34:31.276Z,94743.03
2024-01-07T03:36:58.871Z,94739.88
2024-01-07T03:39:25.610Z,94747.25
2024-01-07T03:41:56.661Z,94747.72
2024-01-07T03:44:23.440Z,94742.38
2024-01-07T03:46:50.392Z,94744.06
2024-01-07T03:49:17.167Z,94743.50
2024-01-07T03:51:44.015Z,94746.47
2024-01-07T03:54:10.914Z,94742.34
2024-01-07T03:56:37.623Z,94743.03
2024-01-07T03:59:04.357Z,94747.16
2024-01-07T04:01:31.092Z,94747.81
2024-01-07T04:03:58.047Z,94751.00
2024-01-07T04:06:24.778Z,94751.34
2024-01-07T04:08:51.512Z,94751.94
2024-01-07T04:11:18.215Z,94759.53
2024-01-07T04:13:44.918Z,94757.03
2024-01-07T04:16:21.542Z,94761.00
2024-01-07T04:18:53.074Z,94760.44
2024-01-07T04:21:21.061Z,94756.13
2024-01-07T04:23:47.831Z,94763.50
2024-01-07T04:26:14.726Z,94759.41
2024-01-07T04:28:44.512Z,94765.00
2024-01-07T04:31:11.666Z,94764.91
2024-01-07T04:33:38.589Z,94762.16
2024-01-07T04:36:05.761Z,94764.06
2024-01-07T04:38:32.641Z,94768.84
2024-01-07T04:40:59.672Z,94768.84
2024-01-07T04:43:26.378Z,94773.97
2024-01-07T04:45:53.343Z,94774.88
2024-01-07T04:48:20.364Z,94776.13
2024-01-07T04:50:47.129Z,94772.25
2024-01-07T04:53:14.370Z,94771.59
2024-01-07T04:55:41.373Z,94772.16
2024-01-07T04:58:08.408Z,94784.66
2024-01-07T05:00:35.351Z,94775.22
2024-01-07T05:03:02.175Z,94776.81
2024-01-07T05:05:29.124Z,94788.31
2024-01-07T05:07:56.355Z,94789.00
2024-01-07T05:10:23.510Z,94788.31
2024-01-07T05:12:50.822Z,94792.16
2024-01-07T05:15:17.744Z,94788.66
2024-01-07T05:17:44.551Z,94789.44
2024-01-07T05:20:12.048Z,94794.44
2024-01-07T05:22:39.152Z,94794.78
2024-01-07T05:25:06.454Z,94793.88
2024-01-07T05:27:33.230Z,94796.84
2024-01-07T05:30:00.197Z,94798.06
2024-01-07T05:32:27.095Z,94805.47
2024-01-07T05:34:54.249Z,94809.81
2024-01-07T05:37:21.155Z,94809.81
2024-01-07T05:39:48.587Z,94806.47
2024-01-07T05:42:15.594Z,94807.97
2024-01-07T05:44:42.383Z,94807.31
2024-01-07T05:47:09.378Z,94804.91
2024-01-07T05:49:36.382Z,94808.19
2024-01-07T05:52:03.349Z,94813.31
2024-01-07T05:54:32.381Z,94810.25
2024-01-07T05:56:59.355Z,94811.47
2024-01-07T05:59:26.032Z,94816.94
2024-01-07T06:01:52.916Z,94818.66
2024-01-07T06:04:19.848Z,94819.31
2024-01-07T06:06:48.903Z,94820.25
2024-01-07T06:09:17.196Z,94828.66
2024-01-07T06:11:44.073Z,94818.66
2024-01-07T06:14:10.877Z,94816.50
2024-01-07T06:16:37.572Z,94821.63
2024-01-07T06:19:04.772Z,94824.44
2024-01-07T06:21:31.742Z,94826.06
2024-01-07T06:23:58.539Z,94824.56
2024-01-07T06:26:25.542Z,94824.00
2024-01-07T06:28:52.267Z,94829.34
2024-01-07T06:31:19.084Z,94828.09
2024-01-07T06:33:46.025Z,94831.72
2024-01-07T06:36:12.875Z,94835.59
2024-01-07T06:38:40.042Z,94840.47
2024-01-07T06:41:07.081Z,94841.53
2024-01-07T06:43:33.966Z,94849.03
2024-01-07T06:46:01.153Z,94848.00
2024-01-07T06:48:28.162Z,94854.03
2024-01-07T06:50:55.086Z,94854.47
2024-01-07T06:53:22.526Z,94850.03
2024-01-07T06:55:49.386Z,94851.66
2024-01-07T06:58:16.194Z,94853.31
2024-01-07T07:00:44.314Z,94859.13
2024-01-07T07:03:11.964Z,94858.56
2024-01-07T07:05:38.773Z,94863.00
2024-01-07T07:08:06.266Z,94856.72
2024-01-07T07:10:33.238Z,94869.03
2024-01-07T07:13:00.197Z,94863.13
2024-01-07T07:15:29.342Z,94867.13
2024-01-07T07:17:57.199Z,94868.47
2024-01-07T07:20:24.294Z,94872.69
2024-01-07T07:22:51.203Z,94878.59
2024-01-07T07:25:18.083Z,94884.94
2024-01-07T07:27:45.063Z,94884.03
2024-01-07T07:30:12.438Z,94888.25
2024-01-07T07:32:45.859Z,94892.44
2024-01-07T07:35:13.619Z,94896.09
2024-01-07T07:37:40.321Z,94895.06
2024-01-07T07:40:07.648Z,94900.28
2024-01-07T07:42:34.500Z,94903.72
2024-01-07T07:45:02.297Z,94901.03
2024-01-07T07:47:29.002Z,94904.19
2024-01-07T07:49:56.061Z,94909.09
2024-01-07T07:52:26.878Z,94916.94
2024-01-07T07:54:54.576Z,94910.31
2024-01-07T07:57:22.691Z,94917.94
2024-01-07T07:59:50.481Z,94918.72
2024-01-07T08:02:17.418Z,94923.97
2024-01-07T08:04:45.076Z,94924.78
2024-01-07T08:07:11.906Z,94921.56
2024-01-07T08:09:38.641Z,94929.19
2024-01-07T08:12:08.614Z,94936.81
2024-01-07T08:14:35.408Z,94937.19
2024-01-07T08:17:02.241Z,94945.25
2024-01-07T08:19:29.482Z,94941.03
2024-01-07T08:21:58.070Z,94948.66
2024-01-07T08:24:24.848Z,94947.66
2024-01-07T08:26:51.993Z,94948.66
2024-01-07T08:29:18.990Z,94944.94
2024-01-07T08:31:46.184Z,94942.09
2024-01-07T08:34:13.172Z,94959.28
2024-01-07T08:36:39.893Z,94947.94
2024-01-07T08:39:06.691Z,94955.34
2024-01-07T08:41:33.388Z,94959.47
2024-01-07T08:44:00.147Z,94953.06
2024-01-07T08:46:26.895Z,94961.41
2024-01-07T08:48:53.853Z,94965.16
2024-01-07T08:51:20.865Z,94969.06
2024-01-07T08:53:47.721Z,94968.94
2024-01-07T08:56:14.395Z,94970.38
2024-01-07T08:58:43.315Z,94981.66
2024-01-07T09:01:10.361Z,94974.38
2024-01-07T09:03:37.195Z,94979.84
2024-01-07T09:06:04.345Z,94983.34
2024-01-07T09:08:31.061Z,94986.31
2024-01-07T09:10:57.726Z,94989.38
2024-01-07T09:13:24.525Z,94987.56
2024-01-07T09:15:51.294Z,94993.03
2024-01-07T09:18:18.381Z,94983.91
2024-01-07T09:20:45.315Z,94993.16
2024-01-07T09:23:12.086Z,94996.22
2024-01-07T09:25:38.784Z,94994.63
2024-01-07T09:28:06.596Z,95001.09
2024-01-07T09:30:33.881Z,95008.28
2024-01-07T09:33:01.043Z,95006.13
2024-01-07T09:35:27.995Z,95008.03
2024-01-07T09:37:54.713Z,95014.09
2024-01-07T09:40:21.717Z,95010.44
2024-01-07T09:42:48.576Z,95012.72
2024-01-07T09:45:16.099Z,95014.09
2024-01-07T09:47:45.594Z,95014.31
2024-01-07T09:50:12.809Z,95016.16
2024-01-07T09:52:43.541Z,95010.66
2024-01-07T09:55:12.740Z,95012.03
2024-01-07T09:57:42.173Z,95017.06
2024-01-07T10:00:10.029Z,95013.88
2024-01-07T10:02:37.562Z,95017.06
2024-01-07T10:05:04.520Z,95014.22
2024-01-07T10:07:31.387Z,95015.81
2024-01-07T10:09:58.238Z,95011.16
2024-01-07T10:12:25.689Z,95014.13
2024-01-07T10:14:52.978Z,95014.47
2024-01-07T10:17:20.186Z,95013.56
2024-01-07T10:19:49.601Z,95011.53
2024-01-07T10:22:17.713Z,95008.78
2024-01-07T10:24:47.721Z,95016.41
2024-01-07T10:27:14.595Z,95012.69
2024-01-07T10:29:41.697Z,95017.69
2024-01-07T10:32:08.517Z,95017.53
2024-01-07T10:34:37.465Z,95022.88
2024-01-07T10:37:10.170Z,95019.69
2024-01-07T10:39:37.067Z,95016.84
2024-01-07T10:42:04.641Z,95015.13
2024-01-07T10:44:33.482Z,95017.19
2024-01-07T10:47:00.817Z,95021.53
2024-01-07T10:49:29.862Z,95016.28
2024-01-07T10:52:07.061Z,95023.47
2024-01-07T10:54:38.019Z,95016.50
2024-01-07T10:57:22.559Z,95023.63
2024-01-07T10:59:52.028Z,95021.97
2024-01-07T11:02:21.296Z,95019.91
2024-01-07T11:05:01.900Z,95021.72
2024-01-07T11:08:05.197Z,95018.16
2024-01-07T11:10:53.303Z,95021.94
2024-01-07T11:13:39.615Z,95016.09
2024-01-07T11:16:13.306Z,95018.81
2024-01-07T11:18:53.062Z,95019.47
2024-01-07T11:21:26.456Z,95021.19
2024-01-07T11:23:54.750Z,95018.47
2024-01-07T11:26:25.028Z,95020.03
2024-01-07T11:28:54.237Z,95017.56
2024-01-07T11:31:23.364Z,95026.09
2024-01-07T11:33:51.499Z,95015.53
2024-01-07T11:36:19.320Z,95017.69
2024-01-07T11:38:53.903Z,95017.56
2024-01-07T11:41:22.366Z,95024.25
2024-01-07T11:43:56.787Z,95024.59
2024-01-07T11:46:24.734Z,95028.44
2024-01-07T11:48:54.629Z,95031.47
2024-01-07T11:51:21.530Z,95033.13
2024-01-07T11:53:49.524Z,95033.88
2024-01-07T11:56:16.453Z,95037.91
2024-01-07T11:58:43.529Z,95030.28
2024-01-07T12:01:10.817Z,95033.47
2024-01-07T12:03:37.996Z,95031.53
2024-01-07T12:06:05.868Z,95035.28
2024-01-07T12:08:33.102Z,95035.06
2024-01-07T12:11:01.233Z,95039.41
2024-01-07T12:13:28.377Z,95041.00
2024-01-07T12:15:55.616Z,95040.75
2024-01-07T12:18:23.411Z,95044.47
2024-01-07T12:20:59.021Z,95043.38
2024-01-07T12:23:27.072Z,95042.78
2024-01-07T12:25:54.568Z,95047.94
2024-01-07T12:28:21.649Z,95043.97
2024-01-07T12:30:51.922Z,95050.94
2024-01-07T12:33:20.858Z,95048.03
2024-01-07T12:35:48.342Z,95055.03
2024-01-07T12:38:16.131Z,95052.56
2024-01-07T12:40:42.917Z,95050.41
2024-01-07T12:43:09.837Z,95056.91
2024-01-07T12:45:36.874Z,95065.22
2024-01-07T12:48:04.251Z,95068.13
2024-01-07T12:50:32.952Z,95066.75
2024-01-07T12:53:00.281Z,95067.97
2024-01-07T12:55:28.009Z,95070.44
2024-01-07T12:57:55.970Z,95073.94
2024-01-07T13:00:22.956Z,95073.50
2024-01-07T13:02:50.241Z,95080.13
2024-01-07T13:05:17.481Z,95085.22
2024-01-07T13:07:44.523Z,95083.53
2024-01-07T13:10:11.511Z,95089.75
2024-01-07T13:12:44.003Z,95091.31
2024-01-07T13:15:17.912Z,95089.41
2024-01-07T13:17:45.384Z,95092.09
2024-01-07T13:20:13.228Z,95097.16
2024-01-07T13:22:40.203Z,95096.81
2024-01-07T13:25:08.263Z,95097.38
2024-01-07T13:27:37.805Z,95102.75
2024-01-07T13:30:06.121Z,95112.13
2024-01-07T13:32:38.192Z,95110.19
2024-01-07T13:35:06.674Z,95113.81
2024-01-07T13:37:33.515Z,95116.38
2024-01-07T13:40:00.485Z,95124.88
2024-01-07T13:42:27.440Z,95116.88
2024-01-07T13:44:54.277Z,95120.22
2024-01-07T13:47:21.279Z,95125.88
2024-01-07T13:49:48.507Z,95123.31
2024-01-07T13:52:16.384Z,95130.94
2024-01-07T13:54:43.532Z,95124.53
2024-01-07T13:57:10.630Z,95133.84
2024-01-07T13:59:37.412Z,95132.38
2024-01-07T14:02:06.321Z,95142.66
2024-01-07T14:04:33.135Z,95138.50
2024-01-07T14:07:00.606Z,95149.63
2024-01-07T14:09:27.575Z,95141.97
2024-01-07T14:11:54.306Z,95149.63
2024-01-07T14:14:21.643Z,95144.44
2024-01-07T14:16:48.406Z,95150.28
2024-01-07T14:19:17.833Z,95157.00
2024-01-07T14:21:44.881Z,95158.38
2024-01-07T14:24:11.684Z,95163.44
2024-01-07T14:26:38.394Z,95160.81
2024-01-07T14:29:15.860Z,95166.38
2024-01-07T14:31:46.604Z,95166.81
2024-01-07T14:34:13.818Z,95166.38
2024-01-07T14:36:42.969Z,95171.25
2024-01-07T14:39:11.187Z,95170.97
2024-01-07T14:41:37.934Z,95175.84
2024-01-07T14:44:09.237Z,95182.78
2024-01-07T14:46:38.701Z,95179.19
2024-01-07T14:49:06.265Z,95187.56
2024-01-07T14:51:33.564Z,95190.41
2024-01-07T14:54:01.610Z,95188.97
2024-01-07T14:56:28.678Z,95191.22
2024-01-07T14:58:55.901Z,95198.47
2024-01-07T15:01:22.867Z,95194.00
2024-01-07T15:03:49.942Z,95197.22
2024-01-07T15:06:16.886Z,95206.84
2024-01-07T15:08:46.652Z,95207.47
2024-01-07T15:11:13.582Z,95207.25
2024-01-07T15:13:41.292Z,95215.09
2024-01-07T15:16:08.494Z,95217.16
2024-01-07T15:18:38.482Z,95212.38
2024-01-07T15:21:06.777Z,95216.16
2024-01-07T15:23:33.984Z,95221.03
2024-01-07T15:26:00.848Z,95217.25
2024-01-07T15:28:27.822Z,95223.28
2024-01-07T15:30:54.939Z,95229.31
2024-01-07T15:33:21.853Z,95231.28
2024-01-07T15:35:49.204Z,95230.22
2024-01-07T15:38:15.953Z,95234.66
2024-01-07T15:40:43.585Z,95232.06
2024-01-07T15:43:13.870Z,95246.56
2024-01-07T15:45:41.049Z,95239.25
2024-01-07T15:48:08.813Z,95249.22
2024-01-07T15:50:36.499Z,95250.84
2024-01-07T15:53:06.714Z,95247.06
2024-01-07T15:55:36.245Z,95252.50
2024-01-07T15:58:04.012Z,95248.25
2024-01-07T16:00:31.032Z,95259.06
2024-01-07T16:02:59.892Z,95261.91
2024-01-07T16:05:27.228Z,95264.06
2024-01-07T16:07:54.148Z,95265.09
2024-01-07T16:10:21.200Z,95267.91
2024-01-07T16:12:48.343Z,95280.34
2024-01-07T16:15:15.568Z,95280.91
2024-01-07T16:17:44.026Z,95281.53
2024-01-07T16:20:13.126Z,95286.34
2024-01-07T16:22:39.974Z,95288.41
2024-01-07T16:25:08.325Z,95293.78
2024-01-07T16:27:35.235Z,95289.56
2024-01-07T16:30:02.142Z,95296.44
2024-01-07T16:32:28.999Z,95299.41
2024-01-07T16:34:57.130Z,95295.22
2024-01-07T16:37:27.151Z,95297.44
2024-01-07T16:39:54.017Z,95308.97
2024-01-07T16:42:20.840Z,95310.88
2024-01-07T16:44:47.633Z,95317.44
2024-01-07T16:47:15.123Z,95314.66
2024-01-07T16:52:12.734Z,95325.13
2024-01-07T16:54:39.611Z,95320.91
2024-01-07T16:57:06.635Z,95327.75
2024-01-07T16:59:33.446Z,95340.38
2024-01-07T17:02:01.491Z,95341.22
2024-01-07T17:04:28.325Z,95341.66
2024-01-07T17:06:55.102Z,95343.25
2024-01-07T17:09:25.073Z,95343.91
2024-01-07T17:11:52.289Z,95345.50
2024-01-07T17:14:19.065Z,95345.28
2024-01-07T17:16:47.290Z,95350.13
2024-01-07T17:19:14.321Z,95351.34
2024-01-07T17:21:41.231Z,95345.91
2024-01-07T17:24:08.404Z,95359.41
2024-01-07T17:26:36.221Z,95359.16
2024-01-07T17:29:03.071Z,95361.75
2024-01-07T17:31:29.880Z,95371.41
2024-01-07T17:33:56.803Z,95371.41
2024-01-07T17:36:23.676Z,95374.03
2024-01-07T17:38:50.422Z,95373.41
2024-01-07T17:41:17.157Z,95373.81
2024-01-07T17:43:43.981Z,95375.63
2024-01-07T17:46:11.099Z,95382.03
2024-01-07T17:48:39.486Z,95379.22
2024-01-07T17:51:07.452Z,95381.47
2024-01-07T17:53:37.061Z,95385.31
2024-01-07T17:56:03.968Z,95392.13
2024-01-07T17:58:30.730Z,95385.06
2024-01-07T18:00:59.102Z,95398.53
2024-01-07T18:03:25.986Z,95402.56
2024-01-07T18:05:54.794Z,95404.56
2024-01-07T18:08:29.653Z,95402.94
2024-01-07T18:11:02.233Z,95403.16
2024-01-07T18:13:29.027Z,95403.78
2024-01-07T18:15:55.879Z,95413.22
2024-01-07T18:18:24.800Z,95418.03
2024-01-07T18:20:51.585Z,95419.00
2024-01-07T18:23:18.402Z,95427.84
2024-01-07T18:25:45.424Z,95431.47
2024-01-07T18:28:12.214Z,95425.88
2024-01-07T18:30:38.946Z,95432.47
2024-01-07T18:33:05.725Z,95434.28
2024-01-07T18:35:32.649Z,95434.28
2024-01-07T18:37:59.472Z,95438.88
2024-01-07T18:40:26.910Z,95444.28
2024-01-07T18:42:53.610Z,95442.31
2024-01-07T18:45:20.710Z,95446.75
2024-01-07T18:47:47.474Z,95439.69
2024-01-07T18:50:15.587Z,95441.53
2024-01-07T18:52:42.738Z,95444.53
2024-01-07T18:55:10.114Z,95459.97
2024-01-07T18:57:37.843Z,95449.13
2024-01-07T19:00:05.048Z,95456.53
2024-01-07T19:02:31.815Z,95454.13
2024-01-07T19:04:58.706Z,95460.97
2024-01-07T19:07:26.090Z,95460.78
2024-01-07T19:09:52.922Z,95460.97
2024-01-07T19:12:20.221Z,95462.59
2024-01-07T19:14:46.982Z,95466.38
2024-01-07T19:17:14.980Z,95469.00
2024-01-07T19:19:41.973Z,95465.78
2024-01-07T19:22:11.712Z,95468.56
2024-01-07T19:24:41.869Z,95470.59
2024-01-07T19:27:08.635Z,95470.63
2024-01-07T19:29:35.402Z,95478.44
2024-01-07T19:32:02.314Z,95486.88
2024-01-07T19:34:31.171Z,95479.63
2024-01-07T19:36:58.211Z,95483.03
2024-01-07T19:39:24.983Z,95481.00
2024-01-07T19:41:52.853Z,95486.03
2024-01-07T19:44:21.167Z,95485.03
2024-01-07T19:46:48.203Z,95488.66
2024-01-07T19:49:15.020Z,95500.09
2024-01-07T19:51:41.756Z,95497.28
2024-01-07T19:54:08.633Z,95491.06
2024-01-07T19:56:35.491Z,95494.44
2024-01-07T19:59:04.296Z,95503.25
2024-01-07T20:01:31.062Z,95501.84
2024-01-07T20:03:57.948Z,95502.88
2024-01-07T20:06:25.521Z,95507.69
2024-01-07T20:08:53.798Z,95507.69
2024-01-07T20:11:25.810Z,95513.69
2024-01-07T20:13:53.747Z,95517.06
2024-01-07T20:16:21.772Z,95522.47
2024-01-07T20:18:52.916Z,95522.88
2024-01-07T20:21:24.314Z,95526.66
2024-01-07T20:23:55.868Z,95524.88
2024-01-07T20:26:26.196Z,95526.09
2024-01-07T20:28:54.850Z,95530.88
2024-01-07T20:31:22.274Z,95542.75
2024-01-07T20:33:50.419Z,95536.47
2024-01-07T20:36:17.535Z,95543.50
2024-01-07T20:38:45.102Z,95543.91
2024-01-07T20:41:12.948Z,95543.69
2024-01-07T20:43:40.356Z,95549.13
2024-01-07T20:46:07.964Z,95547.09
2024-01-07T20:48:35.462Z,95545.94
2024-01-07T20:51:02.328Z,95548.38
2024-01-07T20:53:29.131Z,95552.91
2024-01-07T20:56:00.103Z,95558.00
2024-01-07T20:58:28.047Z,95563.56
2024-01-07T21:00:54.960Z,95569.59
2024-01-07T21:03:21.838Z,95564.44
2024-01-07T21:05:48.881Z,95563.03
2024-01-07T21:08:15.786Z,95561.97
2024-01-07T21:10:42.816Z,95571.00
2024-01-07T21:13:09.953Z,95572.94
2024-01-07T21:15:39.929Z,95565.31
2024-01-07T21:18:08.478Z,95573.41
2024-01-07T21:20:37.094Z,95572.56
2024-01-07T21:23:04.862Z,95575.00
2024-01-07T21:25:33.535Z,95574.69
2024-01-07T21:28:00.307Z,95575.41
2024-01-07T21:30:27.263Z,95572.47
2024-01-07T21:32:54.283Z,95574.09
2024-01-07T21:35:21.363Z,95580.34
2024-01-07T21:37:48.195Z,95575.81
2024-01-07T21:40:16.704Z,95578.59
2024-01-07T21:42:43.608Z,95584.50
2024-01-07T21:45:10.962Z,95582.75
2024-01-07T21:47:39.186Z,95588.88
2024-01-07T21:50:06.682Z,95588.00
2024-01-07T21:52:33.535Z,95583.81
2024-01-07T21:55:00.480Z,95591.81
2024-01-07T21:57:28.095Z,95592.03
2024-01-07T21:59:56.084Z,95594.91
2024-01-07T22:02:23.341Z,95592.75
2024-01-07T22:04:53.041Z,95593.97
2024-01-07T22:07:20.253Z,95590.13
2024-01-07T22:09:47.003Z,95598.72
2024-01-07T22:12:13.933Z,95596.34
2024-01-07T22:14:40.660Z,95597.75
2024-01-07T22:17:07.719Z,95599.34
2024-01-07T22:19:34.635Z,95597.47
2024-01-07T22:22:01.531Z,95601.38
2024-01-07T22:24:28.545Z,95605.06
2024-01-07T22:26:55.587Z,95610.09
2024-01-07T22:29:23.990Z,95604.06
2024-01-07T22:31:51.435Z,95605.91
2024-01-07T22:34:18.583Z,95616.50
2024-01-07T22:36:46.446Z,95615.06
2024-01-07T22:39:13.403Z,95616.31
2024-01-07T22:41:45.358Z,95612.19
2024-01-07T22:44:16.485Z,95610.28
2024-01-07T22:46:50.603Z,95613.69
2024-01-07T22:49:18.412Z,95613.59
2024-01-07T22:51:47.609Z,95616.88
2024-01-07T22:54:15.015Z,95617.03
2024-01-07T22:56:46.531Z,95617.47
2024-01-07T22:59:15.507Z,95619.28
2024-01-07T23:01:43.159Z,95622.31
2024-01-07T23:04:12.099Z,95624.09
2024-01-07T23:06:40.682Z,95627.03
2024-01-07T23:09:08.784Z,95628.75
2024-01-07T23:11:36.715Z,95628.69
2024-01-07T23:14:05.914Z,95637.63
2024-01-07T23:16:34.749Z,95633.66
2024-01-07T23:19:02.445Z,95633.34
2024-01-07T23:21:29.361Z,95648.09
2024-01-07T23:23:56.306Z,95639.94
2024-01-07T23:26:23.541Z,95644.59
2024-01-07T23:28:50.655Z,95649.38
2024-01-07T23:31:17.820Z,95651.44
2024-01-07T23:33:44.883Z,95653.31
2024-01-07T23:36:12.333Z,95651.25
2024-01-07T23:38:39.360Z,95656.69
2024-01-07T23:41:06.598Z,95656.53
2024-01-07T23:43:34.710Z,95655.88
2024-01-07T23:46:02.567Z,95655.25
2024-01-07T23:48:31.784Z,95648.44
2024-01-07T23:50:59.613Z,95660.72
2024-01-07T23:53:26.556Z,95654.75
2024-01-07T23:55:53.671Z,95652.97
2024-01-07T23:58:21.148Z,95652.72
